Time;durP1;ratioP1;P1;durP2;ratioP2;P2;SDS_P1;SDS_P2;PMS_P1;PMS_P2;Temp;Humidity;BMP_temperature;BMP_pressure;BME280_temperature;BME280_humidity;BME280_pressure;Samples;Min_cycle;Max_cycle;Signal;HPM_P1;HPM_P2
2022/05/02 06:02:21;;;;;;;31.52;20.50;;;;;;;;;;5089854;23;20039;-87
2022/05/02 06:04:50;;;;;;;26.48;18.83;;;;;;;;;;4951173;28;20134;-87
2022/05/02 06:07:19;;;;;;;29.65;19.42;;;;;;;;;;4954385;28;20063;-84
2022/05/02 06:09:48;;;;;;;27.60;19.77;;;;;;;;;;4955073;28;20132;-87
2022/05/02 06:12:15;;;;;;;32.22;19.50;;;;;;;;;;4954985;28;20373;-87
2022/05/02 06:20:21;;;;;;;32.70;21.65;;;;;;;;;;4954586;28;20562;-85
2022/05/02 06:22:47;;;;;;;28.17;22.17;;;;;;;;;;4954835;28;20075;-88
2022/05/02 06:25:15;;;;;;;30.20;20.50;;;;;;;;;;4954439;28;20403;-87
2022/05/02 06:27:45;;;;;;;31.00;21.30;;;;;;;;;;4954798;28;20142;-88
2022/05/02 06:30:13;;;;;;;33.70;21.13;;;;;;;;;;4948416;28;20044;-87
2022/05/02 06:32:44;;;;;;;30.30;20.33;;;;;;;;;;4949218;28;20138;-88
2022/05/02 06:35:10;;;;;;;29.40;21.05;;;;;;;;;;4948272;28;20119;-88
2022/05/02 06:38:00;;;;;;;28.08;20.52;;;;;;;;;;4950287;28;20079;-88
2022/05/02 06:40:35;;;;;;;26.95;20.00;;;;;;;;;;4948828;28;20491;-88
2022/05/02 06:43:20;;;;;;;29.02;20.25;;;;;;;;;;4948790;28;20130;-87
2022/05/02 06:45:58;;;;;;;30.77;22.02;;;;;;;;;;4949421;28;20055;-87
2022/05/02 06:48:38;;;;;;;29.30;19.85;;;;;;;;;;4948921;28;20159;-87
2022/05/02 06:51:10;;;;;;;27.55;20.30;;;;;;;;;;4944999;28;20079;-87
2022/05/02 06:53:49;;;;;;;25.88;19.70;;;;;;;;;;4950335;28;20464;-88
2022/05/02 06:56:27;;;;;;;27.40;19.67;;;;;;;;;;4947891;28;20075;-86
2022/05/02 06:59:08;;;;;;;27.13;19.98;;;;;;;;;;4949743;28;20074;-86
2022/05/02 07:01:50;;;;;;;26.65;18.85;;;;;;;;;;4949192;28;20132;-87
2022/05/02 07:04:35;;;;;;;25.27;19.98;;;;;;;;;;4948618;28;20146;-87
2022/05/02 07:07:21;;;;;;;24.10;19.23;;;;;;;;;;4941934;28;20579;-88
2022/05/02 07:10:06;;;;;;;25.38;19.45;;;;;;;;;;4960623;28;20051;-87
2022/05/02 07:12:40;;;;;;;24.05;18.05;;;;;;;;;;4950135;28;20058;-88
2022/05/02 07:15:17;;;;;;;21.85;18.67;;;;;;;;;;4949762;28;20145;-87
2022/05/02 07:17:44;;;;;;;24.23;18.88;;;;;;;;;;4950795;28;20519;-88
2022/05/02 07:20:39;;;;;;;24.75;19.48;;;;;;;;;;4944032;28;20526;-88
2022/05/02 07:23:15;;;;;;;23.58;18.98;;;;;;;;;;4946466;28;20563;-87
2022/05/02 07:25:50;;;;;;;23.25;17.33;;;;;;;;;;4948170;28;20578;-88
2022/05/02 07:28:35;;;;;;;25.35;19.02;;;;;;;;;;4947972;28;20043;-88
2022/05/02 07:31:02;;;;;;;24.33;18.52;;;;;;;;;;4944286;28;20418;-88
2022/05/02 07:33:34;;;;;;;25.60;17.90;;;;;;;;;;4947872;28;20051;-87
2022/05/02 07:36:02;;;;;;;26.92;18.95;;;;;;;;;;4947352;28;20161;-88
2022/05/02 07:38:31;;;;;;;25.48;18.40;;;;;;;;;;4947485;28;20579;-87
2022/05/02 07:43:58;;;;;;;23.93;18.27;;;;;;;;;;4947766;28;20067;-87
2022/05/02 07:46:27;;;;;;;21.20;18.27;;;;;;;;;;4939585;28;20644;-87
2022/05/02 07:48:55;;;;;;;;;;;;;;;;;;4942509;28;20126;-88
2022/05/02 07:51:23;;;;;;;23.75;17.98;;;;;;;;;;4939277;28;19933;-87
2022/05/02 07:53:50;;;;;;;25.73;18.63;;;;;;;;;;4943996;28;20036;-88
2022/05/02 07:56:22;;;;;;;26.35;19.13;;;;;;;;;;4943613;28;20130;-88
2022/05/02 07:58:51;;;;;;;24.15;18.25;;;;;;;;;;4944974;28;20125;-87
2022/05/02 08:01:19;;;;;;;22.02;17.17;;;;;;;;;;4942495;28;20157;-87
2022/05/02 08:03:46;;;;;;;23.00;18.25;;;;;;;;;;4944736;28;20043;-87
2022/05/02 08:06:54;;;;;;;19.58;16.83;;;;;;;;;;4945786;28;20043;-86
2022/05/02 08:09:36;;;;;;;21.50;17.15;;;;;;;;;;4940224;28;20808;-88
2022/05/02 08:12:22;;;;;;;23.65;17.20;;;;;;;;;;4961149;28;20067;-88
2022/05/02 08:15:11;;;;;;;25.20;17.83;;;;;;;;;;4943477;28;20074;-86
2022/05/02 08:17:57;;;;;;;23.13;16.52;;;;;;;;;;4946418;28;20082;-87
2022/05/02 08:20:32;;;;;;;19.40;15.15;;;;;;;;;;4946904;28;20600;-88
2022/05/02 08:29:56;;;;;;;18.67;15.80;;;;;;;;;;4946175;28;20047;-87
2022/05/02 08:32:41;;;;;;;19.80;14.85;;;;;;;;;;4945967;28;20106;-87
2022/05/02 08:35:17;;;;;;;17.20;14.57;;;;;;;;;;4945399;28;20055;-85
2022/05/02 08:38:16;;;;;;;17.58;14.07;;;;;;;;;;4947569;28;20059;-88
2022/05/02 08:41:08;;;;;;;15.98;14.27;;;;;;;;;;4947374;28;20065;-89
2022/05/02 08:43:57;;;;;;;22.95;15.25;;;;;;;;;;4947798;28;20054;-87
2022/05/02 08:46:23;;;;;;;19.00;15.30;;;;;;;;;;4947298;28;20149;-88
2022/05/02 08:49:36;;;;;;;19.95;15.77;;;;;;;;;;4941954;28;20078;-88
2022/05/02 08:52:15;;;;;;;20.48;14.95;;;;;;;;;;4937452;28;20738;-88
2022/05/02 08:54:41;;;;;;;17.88;14.20;;;;;;;;;;4944968;28;20047;-85
2022/05/02 08:57:37;;;;;;;17.08;14.23;;;;;;;;;;4946082;28;20050;-85
2022/05/02 09:00:09;;;;;;;19.52;15.65;;;;;;;;;;4886863;29;20076;-86
2022/05/02 09:03:17;;;;;;;19.40;14.07;;;;;;;;;;4885401;29;20135;-86
2022/05/02 09:05:58;;;;;;;19.40;15.32;;;;;;;;;;4884350;29;20513;-88
2022/05/02 09:08:53;;;;;;;17.10;13.60;;;;;;;;;;4886272;29;20049;-87
2022/05/02 09:11:33;;;;;;;18.65;14.27;;;;;;;;;;4870782;29;20502;-87
2022/05/02 09:14:18;;;;;;;17.15;14.43;;;;;;;;;;4888292;29;20533;-87
2022/05/02 09:17:24;;;;;;;18.83;14.52;;;;;;;;;;4887529;29;20120;-88
2022/05/02 09:20:21;;;;;;;19.08;15.38;;;;;;;;;;4889659;29;20493;-88
2022/05/02 09:23:09;;;;;;;17.83;14.90;;;;;;;;;;4887825;29;20536;-88
2022/05/02 09:26:06;;;;;;;17.85;14.27;;;;;;;;;;4888986;29;20053;-88
2022/05/02 09:28:38;;;;;;;17.90;13.73;;;;;;;;;;4873170;29;20526;-88
2022/05/02 09:31:13;;;;;;;17.65;14.77;;;;;;;;;;4891844;29;20057;-87
2022/05/02 09:33:48;;;;;;;18.67;15.05;;;;;;;;;;4891632;29;20053;-88
2022/05/02 09:36:30;;;;;;;22.05;15.25;;;;;;;;;;4902851;28;20054;-87
2022/05/02 09:39:11;;;;;;;18.05;13.80;;;;;;;;;;4948159;28;20053;-87
2022/05/02 09:42:02;;;;;;;18.95;15.15;;;;;;;;;;4950251;28;20054;-86
2022/05/02 09:51:00;;;;;;;18.77;13.73;;;;;;;;;;4951340;28;20119;-87
2022/05/02 09:53:48;;;;;;;15.68;13.57;;;;;;;;;;4892875;29;20055;-88
2022/05/02 09:56:39;;;;;;;16.58;14.23;;;;;;;;;;4895161;29;20045;-88
2022/05/02 09:59:09;;;;;;;16.85;13.98;;;;;;;;;;4889708;29;20052;-87
2022/05/02 10:01:45;;;;;;;17.35;14.75;;;;;;;;;;4897504;29;20048;-87
2022/05/02 10:04:30;;;;;;;17.70;15.43;;;;;;;;;;4895794;29;20048;-86
2022/05/02 10:07:09;;;;;;;20.05;15.07;;;;;;;;;;4888584;29;20135;-86
2022/05/02 10:09:59;;;;;;;17.17;14.85;;;;;;;;;;4892756;29;20052;-87
2022/05/02 10:12:45;;;;;;;18.35;14.85;;;;;;;;;;4890420;29;20048;-85
2022/05/02 10:15:18;;;;;;;17.67;14.40;;;;;;;;;;4888788;29;20045;-87
2022/05/02 10:18:10;;;;;;;21.90;15.05;;;;;;;;;;4890046;29;20116;-88
2022/05/02 10:21:01;;;;;;;18.73;15.50;;;;;;;;;;4889456;29;20148;-86
2022/05/02 10:23:52;;;;;;;17.92;14.98;;;;;;;;;;4889255;29;20108;-87
2022/05/02 10:26:29;;;;;;;16.90;13.73;;;;;;;;;;4891543;29;20052;-85
2022/05/02 10:29:02;;;;;;;18.60;15.23;;;;;;;;;;4890556;29;20077;-85
2022/05/02 10:31:34;;;;;;;17.70;15.02;;;;;;;;;;4949147;28;20043;-86
2022/05/02 10:34:04;;;;;;;16.70;14.90;;;;;;;;;;4949571;28;20062;-85
2022/05/02 10:36:38;;;;;;;17.25;14.80;;;;;;;;;;4948891;28;20055;-86
2022/05/02 10:39:26;;;;;;;16.38;14.68;;;;;;;;;;4946418;28;20079;-86
2022/05/02 10:41:58;;;;;;;18.95;14.85;;;;;;;;;;4949363;28;20062;-85
2022/05/02 10:44:37;;;;;;;20.75;13.75;;;;;;;;;;4941499;28;20125;-84
2022/05/02 10:47:07;;;;;;;17.67;13.95;;;;;;;;;;4943642;28;20082;-84
2022/05/02 10:49:34;;;;;;;17.38;13.85;;;;;;;;;;4947237;28;20070;-84
2022/05/02 10:52:47;;;;;;;15.02;13.40;;;;;;;;;;4947689;29;20074;-83
2022/05/02 10:55:27;;;;;;;17.65;14.13;;;;;;;;;;4903419;29;20200;-82
2022/05/02 10:57:59;;;;;;;16.25;13.02;;;;;;;;;;4892409;29;20056;-83
2022/05/02 11:00:28;;;;;;;15.38;12.45;;;;;;;;;;4889420;29;20067;-83
2022/05/02 11:03:03;;;;;;;16.00;12.98;;;;;;;;;;4903913;29;20160;-84
2022/05/02 11:05:53;;;;;;;13.20;11.13;;;;;;;;;;4881224;29;20052;-84
2022/05/02 11:08:44;;;;;;;16.05;12.25;;;;;;;;;;4892207;29;20044;-85
2022/05/02 11:11:39;;;;;;;16.15;12.02;;;;;;;;;;4897087;29;20048;-84
2022/05/02 11:14:39;;;;;;;14.05;11.02;;;;;;;;;;4902543;29;20501;-84
2022/05/02 11:17:30;;;;;;;12.80;10.15;;;;;;;;;;4901226;29;20088;-84
2022/05/02 11:22:59;;;;;;;12.13;10.37;;;;;;;;;;4889695;29;20127;-86
2022/05/02 11:26:03;;;;;;;12.23;10.15;;;;;;;;;;4889471;29;20451;-85
2022/05/02 11:28:53;;;;;;;12.73;9.93;;;;;;;;;;4889982;29;20048;-85
2022/05/02 11:31:34;;;;;;;13.32;10.15;;;;;;;;;;4906844;29;20078;-84
2022/05/02 11:34:26;;;;;;;12.30;9.43;;;;;;;;;;4917304;29;20168;-84
2022/05/02 11:36:55;;;;;;;12.95;9.35;;;;;;;;;;4914890;29;20075;-85
2022/05/02 11:39:56;;;;;;;10.30;9.30;;;;;;;;;;4929697;29;20054;-85
2022/05/02 11:42:25;;;;;;;14.38;10.02;;;;;;;;;;4928497;29;20122;-85
2022/05/02 11:45:17;;;;;;;18.67;10.68;;;;;;;;;;4914672;29;20472;-85
2022/05/02 11:48:29;;;;;;;12.88;10.07;;;;;;;;;;4915221;29;20043;-85
2022/05/02 11:50:56;;;;;;;13.68;10.52;;;;;;;;;;4852673;29;20503;-85
2022/05/02 11:53:28;;;;;;;12.63;9.60;;;;;;;;;;4852519;29;20049;-85
2022/05/02 11:55:55;;;;;;;10.80;9.48;;;;;;;;;;4852646;29;20045;-85
2022/05/02 11:58:24;;;;;;;14.43;11.20;;;;;;;;;;4853675;29;20072;-85
2022/05/02 12:00:57;;;;;;;13.23;11.65;;;;;;;;;;4845767;29;20608;-86
2022/05/02 12:03:25;;;;;;;13.20;11.80;;;;;;;;;;4892173;29;20116;-85
2022/05/02 12:05:55;;;;;;;14.85;12.05;;;;;;;;;;4890361;29;20108;-85
2022/05/02 12:08:31;;;;;;;14.02;11.32;;;;;;;;;;4889760;29;20049;-85
2022/05/02 12:11:11;;;;;;;16.15;11.93;;;;;;;;;;4888698;29;20049;-86
2022/05/02 12:13:44;;;;;;;14.35;11.52;;;;;;;;;;4889355;29;20410;-85
2022/05/02 12:16:12;;;;;;;17.30;11.77;;;;;;;;;;4889019;29;20469;-85
2022/05/02 12:18:53;;;;;;;16.80;12.13;;;;;;;;;;4892245;29;20057;-85
2022/05/02 12:21:38;;;;;;;15.45;12.13;;;;;;;;;;4891795;29;20173;-84
2022/05/02 12:24:07;;;;;;;13.60;11.18;;;;;;;;;;4891949;29;20616;-84
2022/05/02 12:26:43;;;;;;;16.33;11.90;;;;;;;;;;4889233;29;20144;-85
2022/05/02 12:29:19;;;;;;;14.38;12.30;;;;;;;;;;4950937;28;20075;-85
2022/05/02 12:32:00;;;;;;;13.85;11.70;;;;;;;;;;4943197;28;20051;-85
2022/05/02 12:34:46;;;;;;;14.18;11.88;;;;;;;;;;4951070;28;20047;-85
2022/05/02 12:37:23;;;;;;;15.50;11.10;;;;;;;;;;4950620;28;20555;-85
2022/05/02 12:39:56;;;;;;;14.73;11.32;;;;;;;;;;4946977;28;20071;-83
2022/05/02 12:42:27;;;;;;;15.32;11.73;;;;;;;;;;4945861;28;20055;-84
2022/05/02 12:45:04;;;;;;;14.55;11.50;;;;;;;;;;4947334;28;20055;-84
2022/05/02 12:47:39;;;;;;;15.50;12.98;;;;;;;;;;4942969;28;20098;-84
2022/05/02 12:50:21;;;;;;;14.82;11.68;;;;;;;;;;4944183;28;20071;-84
2022/05/02 12:52:49;;;;;;;13.90;11.35;;;;;;;;;;4945457;28;20078;-83
2022/05/02 12:55:18;;;;;;;;;;;;;;;;;;4946620;28;20110;-84
2022/05/02 13:00:42;;;;;;;17.80;12.23;;;;;;;;;;4943734;28;20052;-84
2022/05/02 13:03:17;;;;;;;16.58;11.02;;;;;;;;;;4928074;29;20055;-84
2022/05/02 13:05:56;;;;;;;17.30;11.88;;;;;;;;;;4925214;29;20091;-83
2022/05/02 13:08:36;;;;;;;15.05;11.88;;;;;;;;;;4930701;28;20527;-83
2022/05/02 13:11:15;;;;;;;14.70;11.27;;;;;;;;;;4929431;29;20138;-83
2022/05/02 13:13:47;;;;;;;15.55;11.02;;;;;;;;;;4925705;29;20044;-83
2022/05/02 13:16:28;;;;;;;13.82;10.45;;;;;;;;;;4922495;29;20428;-86
2022/05/02 13:19:00;;;;;;;13.13;10.13;;;;;;;;;;4914040;29;20150;-84
2022/05/02 13:21:27;;;;;;;13.63;11.00;;;;;;;;;;4922126;29;20404;-84
2022/05/02 13:24:05;;;;;;;21.77;13.35;;;;;;;;;;4929379;29;20052;-84
2022/05/02 13:26:41;;;;;;;18.15;13.20;;;;;;;;;;4928460;29;20070;-84
2022/05/02 13:29:40;;;;;;;21.88;15.55;;;;;;;;;;4930018;29;20103;-84
2022/05/02 13:32:10;;;;;;;16.08;12.25;;;;;;;;;;4930636;29;20075;-83
2022/05/02 13:34:54;;;;;;;15.30;12.00;;;;;;;;;;4911439;29;20051;-84
2022/05/02 13:37:40;;;;;;;18.60;12.23;;;;;;;;;;4930960;29;20065;-83
2022/05/02 13:40:12;;;;;;;17.83;12.63;;;;;;;;;;4916932;29;20044;-83
2022/05/02 13:43:08;;;;;;;14.35;11.25;;;;;;;;;;4914132;29;20052;-84
2022/05/02 13:45:44;;;;;;;15.20;10.65;;;;;;;;;;4928753;29;20095;-84
2022/05/02 13:48:30;;;;;;;11.60;10.25;;;;;;;;;;4923229;29;20079;-82
2022/05/02 13:51:04;;;;;;;12.23;9.10;;;;;;;;;;4929615;29;20095;-84
2022/05/02 13:53:40;;;;;;;12.80;9.85;;;;;;;;;;4913310;29;20464;-83
2022/05/02 13:56:28;;;;;;;18.48;9.80;;;;;;;;;;4930222;29;20521;-82
2022/05/02 13:59:14;;;;;;;13.90;9.95;;;;;;;;;;4930634;29;20063;-84
2022/05/02 14:01:48;;;;;;;14.25;9.88;;;;;;;;;;4943307;28;20075;-84
2022/05/02 14:07:14;;;;;;;15.05;9.82;;;;;;;;;;4948247;28;20067;-83
2022/05/02 14:09:47;;;;;;;13.73;10.63;;;;;;;;;;4947598;28;20055;-83
2022/05/02 14:12:24;;;;;;;15.52;10.15;;;;;;;;;;4949317;28;20062;-81
2022/05/02 14:15:07;;;;;;;15.18;9.75;;;;;;;;;;4951524;28;20061;-82
2022/05/02 14:17:36;;;;;;;15.98;9.90;;;;;;;;;;4949821;28;20110;-83
2022/05/02 14:20:25;;;;;;;14.52;9.38;;;;;;;;;;4953612;28;20055;-82
2022/05/02 14:22:56;;;;;;;15.38;10.48;;;;;;;;;;4957813;28;20043;-83
2022/05/02 14:25:29;;;;;;;14.85;9.88;;;;;;;;;;4953709;28;20075;-82
2022/05/02 14:28:06;;;;;;;11.40;9.65;;;;;;;;;;4939192;29;20047;-82
2022/05/02 14:30:38;;;;;;;13.80;9.35;;;;;;;;;;4947458;28;20071;-82
2022/05/02 14:33:06;;;;;;;14.32;10.20;;;;;;;;;;4954812;28;20047;-81
2022/05/02 14:35:39;;;;;;;16.10;10.70;;;;;;;;;;4952747;28;20095;-82
2022/05/02 14:38:11;;;;;;;16.90;12.40;;;;;;;;;;4952689;28;20086;-81
2022/05/02 14:40:42;;;;;;;23.15;15.00;;;;;;;;;;4953095;28;20055;-82
2022/05/02 14:43:10;;;;;;;20.67;13.75;;;;;;;;;;4952710;28;20129;-81
2022/05/02 14:45:38;;;;;;;20.88;14.05;;;;;;;;;;4953372;28;20587;-82
2022/05/02 14:48:06;;;;;;;18.93;13.97;;;;;;;;;;4946702;28;20058;-81
2022/05/02 14:50:34;;;;;;;15.43;11.20;;;;;;;;;;4953049;28;20051;-81
2022/05/02 14:53:09;;;;;;;15.38;10.90;;;;;;;;;;4952142;28;20047;-81
2022/05/02 14:55:42;;;;;;;17.77;10.45;;;;;;;;;;4943438;28;20388;-81
2022/05/02 14:58:12;;;;;;;18.08;10.73;;;;;;;;;;4952610;28;20121;-82
2022/05/02 15:00:42;;;;;;;16.77;9.75;;;;;;;;;;4952994;28;20051;-81
2022/05/02 15:03:14;;;;;;;20.25;10.93;;;;;;;;;;4950268;28;20047;-82
2022/05/02 15:05:42;;;;;;;12.48;9.55;;;;;;;;;;4971029;28;20341;-81
2022/05/02 15:08:33;;;;;;;14.35;8.65;;;;;;;;;;4957744;28;20102;-81
2022/05/02 15:11:04;;;;;;;9.55;7.75;;;;;;;;;;4947487;28;20078;-81
2022/05/02 15:13:55;;;;;;;11.57;7.43;;;;;;;;;;4951444;28;20047;-82
2022/05/02 15:16:25;;;;;;;11.90;8.07;;;;;;;;;;4952115;28;20051;-82
2022/05/02 15:19:34;;;;;;;15.75;8.38;;;;;;;;;;4951768;28;20915;-82
2022/05/02 15:22:37;;;;;;;9.35;6.65;;;;;;;;;;4946856;28;20054;-82
2022/05/02 15:25:10;;;;;;;8.90;7.15;;;;;;;;;;4935748;29;20587;-82
2022/05/02 15:39:12;;;;;;;10.10;7.55;;;;;;;;;;4877478;29;20045;-81
2022/05/02 15:41:47;;;;;;;11.15;7.63;;;;;;;;;;4874619;29;20502;-81
2022/05/02 15:44:41;;;;;;;10.85;7.28;;;;;;;;;;4882272;29;20073;-83
2022/05/02 15:47:18;;;;;;;15.65;8.18;;;;;;;;;;4885169;29;20104;-83
2022/05/02 15:49:53;;;;;;;12.05;8.00;;;;;;;;;;4885797;29;20080;-83
2022/05/02 15:52:25;;;;;;;10.90;7.95;;;;;;;;;;4877276;29;20044;-82
2022/05/02 15:55:07;;;;;;;10.98;7.43;;;;;;;;;;4860088;29;20053;-82
2022/05/02 15:57:41;;;;;;;8.82;7.13;;;;;;;;;;4876638;29;20049;-85
2022/05/02 16:00:16;;;;;;;9.73;7.63;;;;;;;;;;4887282;29;20064;-83
2022/05/02 16:03:03;;;;;;;11.52;8.38;;;;;;;;;;4864777;29;20132;-83
2022/05/02 16:05:32;;;;;;;9.82;7.53;;;;;;;;;;4877073;29;20053;-82
2022/05/02 16:10:46;;;;;;;11.10;7.30;;;;;;;;;;4921217;28;20093;-81
2022/05/02 16:13:19;;;;;;;13.50;8.02;;;;;;;;;;4948276;28;20082;-82
2022/05/02 16:15:47;;;;;;;11.55;8.27;;;;;;;;;;4949149;28;20129;-83
2022/05/02 16:18:22;;;;;;;8.85;7.95;;;;;;;;;;4948386;28;20051;-84
2022/05/02 16:20:49;;;;;;;16.70;12.25;;;;;;;;;;4949521;28;20145;-84
2022/05/02 16:23:20;;;;;;;29.20;22.52;;;;;;;;;;4949292;28;20047;-83
2022/05/02 16:25:56;;;;;;;32.70;28.52;;;;;;;;;;4950398;28;20086;-82
2022/05/02 16:28:25;;;;;;;12.93;10.70;;;;;;;;;;4950716;28;20043;-81
2022/05/02 16:30:52;;;;;;;;;;;;;;;;;;4948925;29;20134;-80
2022/05/02 16:33:21;;;;;;;10.90;7.40;;;;;;;;;;4949186;28;19969;-81
2022/05/02 16:35:50;;;;;;;10.63;8.13;;;;;;;;;;4949647;28;20047;-81
2022/05/02 16:38:38;;;;;;;10.15;7.38;;;;;;;;;;4944949;28;20054;-82
2022/05/02 16:41:12;;;;;;;10.50;8.23;;;;;;;;;;4944293;28;20079;-81
2022/05/02 16:43:46;;;;;;;11.82;8.07;;;;;;;;;;4949857;28;20063;-81
2022/05/02 16:46:15;;;;;;;22.02;17.63;;;;;;;;;;4947469;28;20039;-80
2022/05/02 16:48:42;;;;;;;60.90;37.65;;;;;;;;;;4948744;28;20118;-81
2022/05/02 16:51:10;;;;;;;15.15;12.65;;;;;;;;;;4945590;28;20082;-81
2022/05/02 16:53:39;;;;;;;12.15;9.43;;;;;;;;;;4946609;28;20054;-80
2022/05/02 16:56:06;;;;;;;14.90;10.00;;;;;;;;;;4939320;28;20074;-83
2022/05/02 16:58:32;;;;;;;15.20;9.60;;;;;;;;;;4946315;28;20055;-80
2022/05/02 17:01:12;;;;;;;11.80;9.13;;;;;;;;;;4944208;28;20110;-81
2022/05/02 17:03:42;;;;;;;11.55;9.02;;;;;;;;;;4933874;28;20047;-81
2022/05/02 17:06:08;;;;;;;11.10;8.88;;;;;;;;;;4937917;28;20090;-83
2022/05/02 17:08:36;;;;;;;10.90;9.25;;;;;;;;;;4935580;28;20130;-83
2022/05/02 17:11:05;;;;;;;11.33;9.40;;;;;;;;;;4937521;28;20114;-81
2022/05/02 17:13:34;;;;;;;12.52;9.20;;;;;;;;;;4934091;29;20339;-82
2022/05/02 17:16:18;;;;;;;12.90;8.77;;;;;;;;;;4936940;28;20051;-80
2022/05/02 17:19:06;;;;;;;13.02;9.38;;;;;;;;;;4938916;28;20062;-82
2022/05/02 17:21:50;;;;;;;10.88;9.57;;;;;;;;;;4933021;28;20048;-82
2022/05/02 17:24:21;;;;;;;15.23;9.25;;;;;;;;;;4951779;28;20082;-83
2022/05/02 17:27:00;;;;;;;11.25;9.25;;;;;;;;;;4937479;28;20048;-84
2022/05/02 17:29:30;;;;;;;12.68;8.88;;;;;;;;;;4937220;28;20142;-83
2022/05/02 17:31:59;;;;;;;12.57;8.95;;;;;;;;;;4936673;28;20044;-82
2022/05/02 17:34:27;;;;;;;13.40;9.23;;;;;;;;;;4936276;28;20047;-86
2022/05/02 17:36:58;;;;;;;13.25;9.48;;;;;;;;;;4936225;28;20502;-82
2022/05/02 17:39:29;;;;;;;10.32;8.55;;;;;;;;;;4939802;28;20083;-83
2022/05/02 17:42:09;;;;;;;16.55;9.80;;;;;;;;;;4937469;28;20039;-81
2022/05/02 17:44:39;;;;;;;15.02;9.82;;;;;;;;;;4951316;28;20052;-80
2022/05/02 17:47:10;;;;;;;12.40;9.15;;;;;;;;;;4936706;28;20071;-81
2022/05/02 17:49:49;;;;;;;12.50;9.50;;;;;;;;;;4937702;28;20139;-80
2022/05/02 17:52:19;;;;;;;13.95;10.05;;;;;;;;;;4941519;28;20054;-79
2022/05/02 17:54:47;;;;;;;;;;;;;;;;;;4950021;28;20515;-82
2022/05/02 17:57:18;;;;;;;16.17;10.32;;;;;;;;;;4950588;28;19922;-83
2022/05/02 18:00:01;;;;;;;11.73;9.88;;;;;;;;;;4948994;28;20047;-83
2022/05/02 18:02:48;;;;;;;14.75;9.73;;;;;;;;;;4946206;28;20077;-81
2022/05/02 18:05:25;;;;;;;14.80;9.95;;;;;;;;;;4938576;28;20531;-81
2022/05/02 18:07:51;;;;;;;11.13;9.35;;;;;;;;;;4947774;28;20075;-81
2022/05/02 18:10:27;;;;;;;14.35;10.82;;;;;;;;;;4949705;28;20043;-81
2022/05/02 18:13:10;;;;;;;15.50;12.15;;;;;;;;;;4950363;28;20108;-81
2022/05/02 18:15:50;;;;;;;14.30;12.38;;;;;;;;;;4945129;28;20078;-80
2022/05/02 18:18:38;;;;;;;20.85;15.82;;;;;;;;;;4948809;28;20417;-81
2022/05/02 18:21:06;;;;;;;32.00;19.98;;;;;;;;;;4949584;28;20594;-82
2022/05/02 18:23:50;;;;;;;32.53;19.50;;;;;;;;;;4948890;28;20047;-80
2022/05/02 18:26:19;;;;;;;31.83;19.92;;;;;;;;;;4947264;28;20127;-80
2022/05/02 18:28:49;;;;;;;50.72;27.15;;;;;;;;;;4948319;28;20055;-80
2022/05/02 18:31:32;;;;;;;29.08;18.75;;;;;;;;;;4946794;28;20047;-82
2022/05/02 18:33:59;;;;;;;15.07;11.15;;;;;;;;;;4949433;28;20074;-82
2022/05/02 18:36:26;;;;;;;21.67;13.88;;;;;;;;;;4949549;28;20141;-80
2022/05/02 18:39:06;;;;;;;35.47;19.25;;;;;;;;;;4949412;28;20412;-80
2022/05/02 18:41:56;;;;;;;39.13;22.42;;;;;;;;;;4949341;28;20047;-80
2022/05/02 18:44:26;;;;;;;21.20;15.05;;;;;;;;;;4951382;28;20133;-81
2022/05/02 18:53:00;;;;;;;15.13;11.95;;;;;;;;;;4948865;28;20122;-79
2022/05/02 18:55:29;;;;;;;24.15;17.90;;;;;;;;;;4946639;28;20051;-80
2022/05/02 18:57:57;;;;;;;18.08;13.15;;;;;;;;;;4948792;28;20047;-80
2022/05/02 19:00:34;;;;;;;23.52;17.52;;;;;;;;;;4948339;28;20094;-82
2022/05/02 19:03:05;;;;;;;28.23;20.42;;;;;;;;;;4948323;28;20436;-81
2022/05/02 19:05:33;;;;;;;19.45;13.70;;;;;;;;;;4948081;28;20043;-81
2022/05/02 19:08:02;;;;;;;34.33;21.60;;;;;;;;;;4948149;28;20047;-81
2022/05/02 19:10:29;;;;;;;53.78;27.33;;;;;;;;;;4947907;28;20050;-82
2022/05/02 19:13:00;;;;;;;55.85;27.17;;;;;;;;;;4947976;28;20074;-82
2022/05/02 19:15:30;;;;;;;48.22;24.83;;;;;;;;;;4944772;28;20101;-81
2022/05/02 19:17:58;;;;;;;88.82;38.47;;;;;;;;;;4948268;28;20043;-84
2022/05/02 19:21:08;;;;;;;60.05;28.08;;;;;;;;;;4948889;28;20425;-80
2022/05/02 19:23:46;;;;;;;47.65;23.45;;;;;;;;;;4947337;28;20047;-81
2022/05/02 19:26:14;;;;;;;84.63;36.85;;;;;;;;;;4946885;28;20094;-79
2022/05/02 19:28:44;;;;;;;24.85;17.65;;;;;;;;;;4947586;28;20070;-78
2022/05/02 19:31:20;;;;;;;23.00;17.50;;;;;;;;;;4946910;28;20070;-80
2022/05/02 19:39:06;;;;;;;31.80;17.48;;;;;;;;;;4947253;28;20055;-82
2022/05/02 19:39:43;;;;;;;22.67;17.13;;;;;;;;;;4945725;28;20138;-80
2022/05/02 19:42:19;;;;;;;23.25;18.58;;;;;;;;;;4948108;28;20094;-81
2022/05/02 19:45:01;;;;;;;22.83;18.45;;;;;;;;;;4946573;28;20141;-82
2022/05/02 19:47:30;;;;;;;26.48;18.75;;;;;;;;;;4944573;28;20047;-82
2022/05/02 19:49:59;;;;;;;24.27;18.65;;;;;;;;;;4946832;28;20050;-81
2022/05/02 19:52:26;;;;;;;29.13;18.70;;;;;;;;;;4946728;28;20110;-80
2022/05/02 19:54:58;;;;;;;26.50;19.05;;;;;;;;;;4946932;28;20101;-80
2022/05/02 19:57:26;;;;;;;26.42;19.17;;;;;;;;;;4947595;28;20114;-81
2022/05/02 19:59:54;;;;;;;27.60;19.67;;;;;;;;;;4947338;28;20070;-81
2022/05/02 20:02:24;;;;;;;28.27;19.60;;;;;;;;;;4947347;28;20051;-80
2022/05/02 20:04:51;;;;;;;26.48;19.15;;;;;;;;;;4947650;28;20047;-81
2022/05/02 20:07:18;;;;;;;27.05;18.10;;;;;;;;;;4947841;28;20106;-80
2022/05/02 20:09:46;;;;;;;29.33;18.70;;;;;;;;;;4946816;28;20106;-80
2022/05/02 20:12:14;;;;;;;;;;;;;;;;;;4947499;28;20255;-80
2022/05/02 20:14:41;;;;;;;24.90;17.50;;;;;;;;;;4947323;28;20354;-80
2022/05/02 20:17:08;;;;;;;23.13;17.42;;;;;;;;;;4946940;28;20055;-79
2022/05/02 20:19:35;;;;;;;24.60;17.42;;;;;;;;;;4947461;28;20055;-80
2022/05/02 20:22:02;;;;;;;26.65;18.60;;;;;;;;;;4947474;28;20564;-80
2022/05/02 20:24:30;;;;;;;23.90;18.38;;;;;;;;;;4943856;28;20073;-80
2022/05/02 20:26:57;;;;;;;23.13;18.30;;;;;;;;;;4947811;28;20059;-80
2022/05/02 20:29:26;;;;;;;23.75;17.20;;;;;;;;;;4943189;28;20059;-82
2022/05/02 20:37:27;;;;;;;28.25;18.95;;;;;;;;;;4948257;28;20463;-81
2022/05/02 20:39:54;;;;;;;28.20;18.95;;;;;;;;;;4947462;28;20098;-80
2022/05/02 20:42:30;;;;;;;25.33;18.80;;;;;;;;;;4947608;28;20077;-81
2022/05/02 20:45:02;;;;;;;30.15;18.33;;;;;;;;;;4950566;28;20058;-81
2022/05/02 20:47:40;;;;;;;23.00;18.13;;;;;;;;;;4954532;28;20113;-80
2022/05/02 20:50:07;;;;;;;28.40;18.60;;;;;;;;;;4954063;28;20114;-79
2022/05/02 20:52:37;;;;;;;24.10;18.45;;;;;;;;;;4949333;28;20074;-81
2022/05/02 20:55:05;;;;;;;26.60;19.38;;;;;;;;;;4950409;28;20067;-81
2022/05/02 20:57:32;;;;;;;32.67;20.20;;;;;;;;;;4948858;28;20456;-81
2022/05/02 21:00:04;;;;;;;29.13;19.45;;;;;;;;;;4949398;28;20145;-81
2022/05/02 21:02:31;;;;;;;25.02;18.60;;;;;;;;;;4947340;28;20047;-81
2022/05/02 21:04:58;;;;;;;30.95;20.38;;;;;;;;;;4947258;28;20432;-80
2022/05/02 21:07:27;;;;;;;31.80;20.45;;;;;;;;;;4947960;28;20528;-80
2022/05/02 21:09:53;;;;;;;26.98;20.52;;;;;;;;;;4949632;28;20126;-80
2022/05/02 21:12:45;;;;;;;29.60;19.95;;;;;;;;;;4949826;28;20496;-80
2022/05/02 21:15:31;;;;;;;29.67;18.98;;;;;;;;;;4949155;28;20067;-81
2022/05/02 21:18:05;;;;;;;30.27;19.08;;;;;;;;;;4949788;28;20070;-81
2022/05/02 21:20:36;;;;;;;27.80;18.05;;;;;;;;;;4946710;28;20035;-80
2022/05/02 21:23:43;;;;;;;29.13;19.70;;;;;;;;;;4946147;28;20099;-81
2022/05/02 21:26:29;;;;;;;30.33;19.45;;;;;;;;;;4943189;28;20079;-81
2022/05/02 21:29:27;;;;;;;24.38;18.55;;;;;;;;;;4945943;28;20484;-79
2022/05/02 21:32:14;;;;;;;29.27;19.58;;;;;;;;;;4940855;28;20039;-81
2022/05/02 21:34:53;;;;;;;28.52;19.20;;;;;;;;;;4948866;28;20058;-80
2022/05/02 21:37:22;;;;;;;26.58;18.40;;;;;;;;;;4949049;28;20484;-81
2022/05/02 21:39:50;;;;;;;29.20;19.17;;;;;;;;;;4947626;28;20142;-79
2022/05/02 21:42:17;;;;;;;26.38;19.08;;;;;;;;;;4943256;28;20141;-80
2022/05/02 21:44:44;;;;;;;25.60;18.30;;;;;;;;;;4950583;28;20075;-80
2022/05/02 21:47:11;;;;;;;29.38;18.33;;;;;;;;;;4949567;28;20043;-82
2022/05/02 21:49:37;;;;;;;25.27;17.73;;;;;;;;;;4950132;28;20051;-81
2022/05/02 21:52:04;;;;;;;24.20;18.58;;;;;;;;;;4947394;28;20138;-82
2022/05/02 21:54:31;;;;;;;24.20;17.88;;;;;;;;;;4950087;28;20067;-82
2022/05/02 21:56:57;;;;;;;22.67;18.05;;;;;;;;;;4949779;28;20078;-81
2022/05/02 21:59:27;;;;;;;21.67;16.58;;;;;;;;;;4946254;28;20141;-81
2022/05/02 22:01:54;;;;;;;28.05;18.60;;;;;;;;;;4935421;28;20512;-81
2022/05/02 22:04:20;;;;;;;26.42;18.38;;;;;;;;;;4924583;29;20047;-82
2022/05/02 22:06:47;;;;;;;27.98;18.88;;;;;;;;;;4931007;29;20071;-81
2022/05/02 22:09:14;;;;;;;24.23;17.85;;;;;;;;;;4932896;29;20432;-82
2022/05/02 22:11:40;;;;;;;28.95;18.77;;;;;;;;;;4930911;29;20142;-82
2022/05/02 22:14:07;;;;;;;25.30;18.50;;;;;;;;;;4930427;29;20067;-82